sensor_id;sensor_type;location;lat;lon;timestamp;P1;durP1;ratioP1;P2;durP2;ratioP2
68473;SDS011;55461;52.066;5.194;2022-07-06T00:02:14;4.0;;;1.4;;
68473;SDS011;55461;52.066;5.194;2022-07-06T00:04:01;3.6;;;1.4;;
68473;SDS011;55461;52.066;5.194;2022-07-06T00:05:49;3.6;;;1.4;;
68473;SDS011;55461;52.066;5.194;2022-07-06T00:07:35;4.91;;;1.6;;
68473;SDS011;55461;52.066;5.194;2022-07-06T00:09:21;6.4;;;1.6;;
68473;SDS011;55461;52.066;5.194;2022-07-06T00:12:53;4.8;;;1.5;;
68473;SDS011;55461;52.066;5.194;2022-07-06T00:14:39;5.2;;;1.7;;
68473;SDS011;55461;52.066;5.194;2022-07-06T00:16:27;4.41;;;1.6;;
68473;SDS011;55461;52.066;5.194;2022-07-06T00:18:14;4.91;;;1.6;;
68473;SDS011;55461;52.066;5.194;2022-07-06T00:20:00;4.61;;;1.7;;
68473;SDS011;55461;52.066;5.194;2022-07-06T00:21:46;3.5;;;1.8;;
68473;SDS011;55461;52.066;5.194;2022-07-06T00:25:20;2.7;;;1.5;;
68473;SDS011;55461;52.066;5.194;2022-07-06T00:27:06;4.41;;;1.8;;
68473;SDS011;55461;52.066;5.194;2022-07-06T00:28:53;3.7;;;1.8;;
68473;SDS011;55461;52.066;5.194;2022-07-06T00:30:40;3.5;;;1.6;;
68473;SDS011;55461;52.066;5.194;2022-07-06T00:32:27;2.9;;;1.8;;
68473;SDS011;55461;52.066;5.194;2022-07-06T00:34:14;3.8;;;1.8;;
68473;SDS011;55461;52.066;5.194;2022-07-06T00:37:48;3.5;;;1.7;;
68473;SDS011;55461;52.066;5.194;2022-07-06T00:39:34;5.11;;;2.1;;
68473;SDS011;55461;52.066;5.194;2022-07-06T00:41:20;3.4;;;1.8;;
68473;SDS011;55461;52.066;5.194;2022-07-06T00:43:06;4.2;;;2.0;;
68473;SDS011;55461;52.066;5.194;2022-07-06T00:44:54;2.5;;;1.9;;
68473;SDS011;55461;52.066;5.194;2022-07-06T00:48:26;5.2;;;2.0;;
68473;SDS011;55461;52.066;5.194;2022-07-06T00:50:18;3.8;;;1.9;;
68473;SDS011;55461;52.066;5.194;2022-07-06T00:52:05;4.7;;;2.1;;
68473;SDS011;55461;52.066;5.194;2022-07-06T00:53:53;3.8;;;1.9;;
68473;SDS011;55461;52.066;5.194;2022-07-06T00:55:44;7.5;;;2.21;;
68473;SDS011;55461;52.066;5.194;2022-07-06T00:57:31;3.5;;;2.0;;
68473;SDS011;55461;52.066;5.194;2022-07-06T00:59:17;3.5;;;2.0;;
68473;SDS011;55461;52.066;5.194;2022-07-06T01:02:51;3.6;;;1.8;;
68473;SDS011;55461;52.066;5.194;2022-07-06T01:04:39;3.8;;;1.8;;
68473;SDS011;55461;52.066;5.194;2022-07-06T01:06:25;4.7;;;2.1;;
68473;SDS011;55461;52.066;5.194;2022-07-06T01:08:12;4.0;;;2.0;;
68473;SDS011;55461;52.066;5.194;2022-07-06T01:09:59;6.0;;;1.9;;
68473;SDS011;55461;52.066;5.194;2022-07-06T01:13:34;3.7;;;1.8;;
68473;SDS011;55461;52.066;5.194;2022-07-06T01:15:22;4.61;;;1.9;;
68473;SDS011;55461;52.066;5.194;2022-07-06T01:17:11;4.1;;;2.0;;
68473;SDS011;55461;52.066;5.194;2022-07-06T01:18:59;3.6;;;2.0;;
68473;SDS011;55461;52.066;5.194;2022-07-06T01:20:45;3.6;;;2.0;;
68473;SDS011;55461;52.066;5.194;2022-07-06T01:22:31;2.9;;;1.9;;
68473;SDS011;55461;52.066;5.194;2022-07-06T01:26:04;2.8;;;1.9;;
68473;SDS011;55461;52.066;5.194;2022-07-06T01:27:50;4.41;;;2.0;;
68473;SDS011;55461;52.066;5.194;2022-07-06T01:29:36;3.1;;;1.8;;
68473;SDS011;55461;52.066;5.194;2022-07-06T01:31:24;3.6;;;1.9;;
68473;SDS011;55461;52.066;5.194;2022-07-06T01:33:11;4.41;;;1.9;;
68473;SDS011;55461;52.066;5.194;2022-07-06T01:34:58;3.4;;;2.0;;
68473;SDS011;55461;52.066;5.194;2022-07-06T01:38:32;5.8;;;2.4;;
68473;SDS011;55461;52.066;5.194;2022-07-06T01:40:29;4.5;;;1.9;;
68473;SDS011;55461;52.066;5.194;2022-07-06T01:42:17;3.7;;;1.9;;
68473;SDS011;55461;52.066;5.194;2022-07-06T01:44:04;3.9;;;1.9;;
68473;SDS011;55461;52.066;5.194;2022-07-06T01:45:52;4.0;;;2.0;;
68473;SDS011;55461;52.066;5.194;2022-07-06T01:47:38;3.8;;;1.8;;
68473;SDS011;55461;52.066;5.194;2022-07-06T01:51:11;4.0;;;1.9;;
68473;SDS011;55461;52.066;5.194;2022-07-06T01:52:59;3.6;;;1.8;;
68473;SDS011;55461;52.066;5.194;2022-07-06T01:54:46;3.1;;;1.7;;
68473;SDS011;55461;52.066;5.194;2022-07-06T01:56:32;5.3;;;2.5;;
68473;SDS011;55461;52.066;5.194;2022-07-06T01:58:18;3.6;;;1.7;;
68473;SDS011;55461;52.066;5.194;2022-07-06T02:00:06;2.5;;;1.6;;
68473;SDS011;55461;52.066;5.194;2022-07-06T02:03:41;3.3;;;1.9;;
68473;SDS011;55461;52.066;5.194;2022-07-06T02:05:28;4.2;;;1.9;;
68473;SDS011;55461;52.066;5.194;2022-07-06T02:07:14;3.7;;;1.6;;
68473;SDS011;55461;52.066;5.194;2022-07-06T02:09:00;6.3;;;2.21;;
68473;SDS011;55461;52.066;5.194;2022-07-06T02:10:47;3.3;;;1.7;;
68473;SDS011;55461;52.066;5.194;2022-07-06T02:12:33;6.3;;;1.9;;
68473;SDS011;55461;52.066;5.194;2022-07-06T02:16:06;4.3;;;1.7;;
68473;SDS011;55461;52.066;5.194;2022-07-06T02:17:53;3.6;;;1.8;;
68473;SDS011;55461;52.066;5.194;2022-07-06T02:19:39;3.9;;;1.6;;
68473;SDS011;55461;52.066;5.194;2022-07-06T02:21:25;4.91;;;1.8;;
68473;SDS011;55461;52.066;5.194;2022-07-06T02:23:12;5.4;;;1.8;;
68473;SDS011;55461;52.066;5.194;2022-07-06T02:26:47;4.41;;;2.0;;
68473;SDS011;55461;52.066;5.194;2022-07-06T02:28:33;4.2;;;1.7;;
68473;SDS011;55461;52.066;5.194;2022-07-06T02:30:20;3.2;;;1.6;;
68473;SDS011;55461;52.066;5.194;2022-07-06T02:32:07;4.41;;;1.7;;
68473;SDS011;55461;52.066;5.194;2022-07-06T02:33:54;3.8;;;1.7;;
68473;SDS011;55461;52.066;5.194;2022-07-06T02:35:42;4.3;;;1.6;;
68473;SDS011;55461;52.066;5.194;2022-07-06T02:39:15;3.8;;;1.4;;
68473;SDS011;55461;52.066;5.194;2022-07-06T02:41:01;4.2;;;1.7;;
68473;SDS011;55461;52.066;5.194;2022-07-06T02:42:49;4.3;;;1.7;;
68473;SDS011;55461;52.066;5.194;2022-07-06T02:44:35;3.0;;;1.7;;
68473;SDS011;55461;52.066;5.194;2022-07-06T02:46:21;4.2;;;1.7;;
68473;SDS011;55461;52.066;5.194;2022-07-06T02:48:07;4.41;;;1.8;;
68473;SDS011;55461;52.066;5.194;2022-07-06T02:51:41;3.3;;;1.9;;
68473;SDS011;55461;52.066;5.194;2022-07-06T02:53:27;2.8;;;1.4;;
68473;SDS011;55461;52.066;5.194;2022-07-06T02:55:13;4.5;;;1.8;;
68473;SDS011;55461;52.066;5.194;2022-07-06T02:56:59;3.8;;;1.8;;
68473;SDS011;55461;52.066;5.194;2022-07-06T02:58:45;5.9;;;2.1;;
68473;SDS011;55461;52.066;5.194;2022-07-06T03:02:19;2.9;;;1.8;;
68473;SDS011;55461;52.066;5.194;2022-07-06T03:04:06;2.6;;;1.5;;
68473;SDS011;55461;52.066;5.194;2022-07-06T03:05:52;4.1;;;2.1;;
68473;SDS011;55461;52.066;5.194;2022-07-06T03:07:39;3.7;;;1.7;;
68473;SDS011;55461;52.066;5.194;2022-07-06T03:09:26;3.0;;;1.8;;
68473;SDS011;55461;52.066;5.194;2022-07-06T03:11:13;4.0;;;1.8;;
68473;SDS011;55461;52.066;5.194;2022-07-06T03:14:45;2.5;;;1.5;;
68473;SDS011;55461;52.066;5.194;2022-07-06T03:16:31;4.2;;;2.0;;
68473;SDS011;55461;52.066;5.194;2022-07-06T03:18:18;3.4;;;1.6;;
68473;SDS011;55461;52.066;5.194;2022-07-06T03:20:05;3.2;;;1.8;;
68473;SDS011;55461;52.066;5.194;2022-07-06T03:21:53;4.7;;;1.7;;
68473;SDS011;55461;52.066;5.194;2022-07-06T03:23:39;4.0;;;1.8;;
68473;SDS011;55461;52.066;5.194;2022-07-06T03:27:11;5.4;;;1.7;;
68473;SDS011;55461;52.066;5.194;2022-07-06T03:28:57;5.0;;;1.9;;
68473;SDS011;55461;52.066;5.194;2022-07-06T03:30:44;4.3;;;1.9;;
68473;SDS011;55461;52.066;5.194;2022-07-06T03:32:31;4.7;;;1.8;;
68473;SDS011;55461;52.066;5.194;2022-07-06T03:34:18;2.8;;;1.5;;
68473;SDS011;55461;52.066;5.194;2022-07-06T03:37:52;3.2;;;1.5;;
68473;SDS011;55461;52.066;5.194;2022-07-06T03:39:38;3.7;;;1.6;;
68473;SDS011;55461;52.066;5.194;2022-07-06T03:41:25;4.1;;;1.7;;
68473;SDS011;55461;52.066;5.194;2022-07-06T03:43:11;3.6;;;1.7;;
68473;SDS011;55461;52.066;5.194;2022-07-06T03:44:58;4.2;;;1.6;;
68473;SDS011;55461;52.066;5.194;2022-07-06T03:46:44;3.0;;;1.6;;
68473;SDS011;55461;52.066;5.194;2022-07-06T03:50:18;2.31;;;1.5;;
68473;SDS011;55461;52.066;5.194;2022-07-06T03:52:05;3.9;;;1.5;;
68473;SDS011;55461;52.066;5.194;2022-07-06T03:53:51;4.5;;;1.8;;
68473;SDS011;55461;52.066;5.194;2022-07-06T03:55:37;4.61;;;1.8;;
68473;SDS011;55461;52.066;5.194;2022-07-06T03:57:25;2.31;;;1.4;;
68473;SDS011;55461;52.066;5.194;2022-07-06T03:59:12;4.3;;;1.7;;
68473;SDS011;55461;52.066;5.194;2022-07-06T04:02:46;3.9;;;1.7;;
68473;SDS011;55461;52.066;5.194;2022-07-06T04:04:33;3.9;;;1.5;;
68473;SDS011;55461;52.066;5.194;2022-07-06T04:06:20;4.0;;;1.7;;
68473;SDS011;55461;52.066;5.194;2022-07-06T04:08:07;4.5;;;1.9;;
68473;SDS011;55461;52.066;5.194;2022-07-06T04:09:53;3.8;;;1.6;;
68473;SDS011;55461;52.066;5.194;2022-07-06T04:13:27;4.91;;;1.7;;
68473;SDS011;55461;52.066;5.194;2022-07-06T04:15:13;4.0;;;1.5;;
68473;SDS011;55461;52.066;5.194;2022-07-06T04:17:51;3.9;;;1.8;;
68473;SDS011;55461;52.066;5.194;2022-07-06T04:19:37;4.5;;;1.9;;
68473;SDS011;55461;52.066;5.194;2022-07-06T04:21:24;2.1;;;1.4;;
68473;SDS011;55461;52.066;5.194;2022-07-06T04:23:10;4.1;;;1.6;;
68473;SDS011;55461;52.066;5.194;2022-07-06T04:24:57;3.0;;;1.7;;
68473;SDS011;55461;52.066;5.194;2022-07-06T04:26:43;3.1;;;1.6;;
68473;SDS011;55461;52.066;5.194;2022-07-06T04:28:29;4.8;;;1.8;;
68473;SDS011;55461;52.066;5.194;2022-07-06T04:32:02;4.8;;;1.8;;
68473;SDS011;55461;52.066;5.194;2022-07-06T04:33:49;4.91;;;2.0;;
68473;SDS011;55461;52.066;5.194;2022-07-06T04:35:35;3.3;;;1.6;;
68473;SDS011;55461;52.066;5.194;2022-07-06T04:37:21;4.5;;;1.7;;
68473;SDS011;55461;52.066;5.194;2022-07-06T04:39:08;4.41;;;1.7;;
68473;SDS011;55461;52.066;5.194;2022-07-06T04:42:42;3.6;;;1.6;;
68473;SDS011;55461;52.066;5.194;2022-07-06T04:44:29;3.3;;;1.7;;
68473;SDS011;55461;52.066;5.194;2022-07-06T04:46:16;2.9;;;1.7;;
68473;SDS011;55461;52.066;5.194;2022-07-06T04:48:03;2.21;;;1.5;;
68473;SDS011;55461;52.066;5.194;2022-07-06T04:49:50;3.1;;;1.5;;
68473;SDS011;55461;52.066;5.194;2022-07-06T04:51:37;3.0;;;1.6;;
68473;SDS011;55461;52.066;5.194;2022-07-06T04:55:10;3.1;;;1.6;;
68473;SDS011;55461;52.066;5.194;2022-07-06T04:56:57;2.21;;;1.3;;
68473;SDS011;55461;52.066;5.194;2022-07-06T04:58:43;3.8;;;1.6;;
68473;SDS011;55461;52.066;5.194;2022-07-06T05:00:29;3.8;;;1.6;;
68473;SDS011;55461;52.066;5.194;2022-07-06T05:02:16;2.9;;;1.5;;
68473;SDS011;55461;52.066;5.194;2022-07-06T05:04:03;2.4;;;1.3;;
68473;SDS011;55461;52.066;5.194;2022-07-06T05:07:39;3.0;;;1.5;;
68473;SDS011;55461;52.066;5.194;2022-07-06T05:09:25;3.0;;;1.3;;
68473;SDS011;55461;52.066;5.194;2022-07-06T05:11:12;3.1;;;1.3;;
68473;SDS011;55461;52.066;5.194;2022-07-06T05:12:58;3.2;;;1.3;;
68473;SDS011;55461;52.066;5.194;2022-07-06T05:14:44;3.3;;;1.5;;
68473;SDS011;55461;52.066;5.194;2022-07-06T05:18:16;2.4;;;1.4;;
68473;SDS011;55461;52.066;5.194;2022-07-06T05:20:04;2.5;;;1.3;;
68473;SDS011;55461;52.066;5.194;2022-07-06T05:21:52;3.5;;;1.3;;
68473;SDS011;55461;52.066;5.194;2022-07-06T05:23:38;2.21;;;1.4;;
68473;SDS011;55461;52.066;5.194;2022-07-06T05:25:25;2.21;;;1.4;;
68473;SDS011;55461;52.066;5.194;2022-07-06T05:27:11;3.6;;;1.5;;
68473;SDS011;55461;52.066;5.194;2022-07-06T05:30:43;3.2;;;1.8;;
68473;SDS011;55461;52.066;5.194;2022-07-06T05:32:30;3.5;;;1.3;;
68473;SDS011;55461;52.066;5.194;2022-07-06T05:34:16;4.5;;;1.4;;
68473;SDS011;55461;52.066;5.194;2022-07-06T05:36:03;2.7;;;1.4;;
68473;SDS011;55461;52.066;5.194;2022-07-06T05:37:50;3.0;;;1.3;;
68473;SDS011;55461;52.066;5.194;2022-07-06T05:39:38;3.5;;;1.4;;
68473;SDS011;55461;52.066;5.194;2022-07-06T05:43:11;3.5;;;1.4;;
68473;SDS011;55461;52.066;5.194;2022-07-06T05:44:57;3.3;;;1.4;;
68473;SDS011;55461;52.066;5.194;2022-07-06T05:46:43;4.5;;;1.2;;
68473;SDS011;55461;52.066;5.194;2022-07-06T05:51:33;2.1;;;1.3;;
68473;SDS011;55461;52.066;5.194;2022-07-06T05:53:20;3.1;;;1.2;;
68473;SDS011;55461;52.066;5.194;2022-07-06T05:55:07;3.9;;;1.3;;
68473;SDS011;55461;52.066;5.194;2022-07-06T05:56:54;4.41;;;1.3;;
68473;SDS011;55461;52.066;5.194;2022-07-06T05:58:40;9.81;;;1.7;;
68473;SDS011;55461;52.066;5.194;2022-07-06T06:02:14;3.9;;;1.2;;
68473;SDS011;55461;52.066;5.194;2022-07-06T06:04:02;3.9;;;1.2;;
68473;SDS011;55461;52.066;5.194;2022-07-06T06:05:49;4.3;;;1.3;;
68473;SDS011;55461;52.066;5.194;2022-07-06T06:07:36;2.1;;;1.2;;
68473;SDS011;55461;52.066;5.194;2022-07-06T06:09:23;3.3;;;1.4;;
68473;SDS011;55461;52.066;5.194;2022-07-06T06:11:09;2.7;;;0.9;;
68473;SDS011;55461;52.066;5.194;2022-07-06T06:14:43;5.8;;;1.4;;
68473;SDS011;55461;52.066;5.194;2022-07-06T06:16:30;3.8;;;1.11;;
68473;SDS011;55461;52.066;5.194;2022-07-06T06:18:18;2.5;;;1.11;;
68473;SDS011;55461;52.066;5.194;2022-07-06T06:20:07;4.5;;;1.2;;
68473;SDS011;55461;52.066;5.194;2022-07-06T06:21:56;3.1;;;1.0;;
68473;SDS011;55461;52.066;5.194;2022-07-06T06:23:42;2.7;;;1.11;;
68473;SDS011;55461;52.066;5.194;2022-07-06T06:27:19;2.8;;;1.11;;
68473;SDS011;55461;52.066;5.194;2022-07-06T06:29:05;3.5;;;1.0;;
68473;SDS011;55461;52.066;5.194;2022-07-06T06:30:51;3.2;;;1.0;;
68473;SDS011;55461;52.066;5.194;2022-07-06T06:32:37;3.0;;;0.9;;
68473;SDS011;55461;52.066;5.194;2022-07-06T06:34:25;4.0;;;1.2;;
68473;SDS011;55461;52.066;5.194;2022-07-06T06:36:11;2.6;;;1.0;;
68473;SDS011;55461;52.066;5.194;2022-07-06T06:39:43;2.4;;;0.9;;
68473;SDS011;55461;52.066;5.194;2022-07-06T06:41:30;4.0;;;1.0;;
68473;SDS011;55461;52.066;5.194;2022-07-06T06:43:16;3.7;;;0.8;;
68473;SDS011;55461;52.066;5.194;2022-07-06T06:45:03;3.5;;;1.0;;
68473;SDS011;55461;52.066;5.194;2022-07-06T06:46:49;2.4;;;1.0;;
68473;SDS011;55461;52.066;5.194;2022-07-06T06:50:23;3.5;;;1.2;;
68473;SDS011;55461;52.066;5.194;2022-07-06T06:52:10;3.9;;;1.11;;
68473;SDS011;55461;52.066;5.194;2022-07-06T06:53:56;3.7;;;1.0;;
68473;SDS011;55461;52.066;5.194;2022-07-06T06:55:43;5.3;;;1.11;;
68473;SDS011;55461;52.066;5.194;2022-07-06T06:57:30;3.8;;;0.9;;
68473;SDS011;55461;52.066;5.194;2022-07-06T06:59:16;3.8;;;1.0;;
68473;SDS011;55461;52.066;5.194;2022-07-06T07:02:51;3.0;;;0.9;;
68473;SDS011;55461;52.066;5.194;2022-07-06T07:04:37;3.2;;;0.8;;
68473;SDS011;55461;52.066;5.194;2022-07-06T07:06:24;5.0;;;1.0;;
68473;SDS011;55461;52.066;5.194;2022-07-06T07:08:10;2.9;;;0.8;;
68473;SDS011;55461;52.066;5.194;2022-07-06T07:09:56;3.4;;;0.9;;
68473;SDS011;55461;52.066;5.194;2022-07-06T07:11:43;3.6;;;1.0;;
68473;SDS011;55461;52.066;5.194;2022-07-06T07:15:15;3.4;;;0.9;;
68473;SDS011;55461;52.066;5.194;2022-07-06T07:17:03;3.5;;;0.9;;
68473;SDS011;55461;52.066;5.194;2022-07-06T07:18:50;4.1;;;0.8;;
68473;SDS011;55461;52.066;5.194;2022-07-06T07:20:36;3.3;;;0.6;;
68473;SDS011;55461;52.066;5.194;2022-07-06T07:22:24;2.7;;;0.9;;
68473;SDS011;55461;52.066;5.194;2022-07-06T07:25:56;2.9;;;0.8;;
68473;SDS011;55461;52.066;5.194;2022-07-06T07:27:43;2.8;;;0.9;;
68473;SDS011;55461;52.066;5.194;2022-07-06T07:29:29;3.1;;;1.11;;
68473;SDS011;55461;52.066;5.194;2022-07-06T07:31:15;3.9;;;1.0;;
68473;SDS011;55461;52.066;5.194;2022-07-06T07:33:01;2.21;;;0.9;;
68473;SDS011;55461;52.066;5.194;2022-07-06T07:34:47;3.9;;;0.9;;
68473;SDS011;55461;52.066;5.194;2022-07-06T07:38:20;3.7;;;1.0;;
68473;SDS011;55461;52.066;5.194;2022-07-06T07:40:06;3.1;;;0.9;;
68473;SDS011;55461;52.066;5.194;2022-07-06T07:41:53;3.5;;;1.11;;
68473;SDS011;55461;52.066;5.194;2022-07-06T07:43:39;2.1;;;0.8;;
68473;SDS011;55461;52.066;5.194;2022-07-06T07:45:25;2.9;;;0.9;;
68473;SDS011;55461;52.066;5.194;2022-07-06T07:50:45;2.0;;;0.8;;
68473;SDS011;55461;52.066;5.194;2022-07-06T07:52:31;2.8;;;0.8;;
68473;SDS011;55461;52.066;5.194;2022-07-06T07:54:18;1.7;;;0.6;;
68473;SDS011;55461;52.066;5.194;2022-07-06T07:56:05;1.0;;;0.5;;
68473;SDS011;55461;52.066;5.194;2022-07-06T07:57:52;2.1;;;0.6;;
68473;SDS011;55461;52.066;5.194;2022-07-06T08:01:24;1.4;;;0.6;;
68473;SDS011;55461;52.066;5.194;2022-07-06T08:03:11;1.4;;;0.7;;
68473;SDS011;55461;52.066;5.194;2022-07-06T08:04:58;3.1;;;0.6;;
68473;SDS011;55461;52.066;5.194;2022-07-06T08:06:45;2.1;;;0.7;;
68473;SDS011;55461;52.066;5.194;2022-07-06T08:08:32;2.1;;;0.8;;
68473;SDS011;55461;52.066;5.194;2022-07-06T08:10:18;2.4;;;0.6;;
68473;SDS011;55461;52.066;5.194;2022-07-06T08:13:52;3.5;;;0.7;;
68473;SDS011;55461;52.066;5.194;2022-07-06T08:15:39;2.4;;;0.7;;
68473;SDS011;55461;52.066;5.194;2022-07-06T08:17:27;1.7;;;0.6;;
68473;SDS011;55461;52.066;5.194;2022-07-06T08:19:15;2.1;;;0.7;;
68473;SDS011;55461;52.066;5.194;2022-07-06T08:21:02;2.31;;;0.7;;
68473;SDS011;55461;52.066;5.194;2022-07-06T08:22:49;3.3;;;0.6;;
68473;SDS011;55461;52.066;5.194;2022-07-06T08:26:23;2.31;;;0.6;;
68473;SDS011;55461;52.066;5.194;2022-07-06T08:28:10;3.8;;;0.6;;
68473;SDS011;55461;52.066;5.194;2022-07-06T08:29:56;2.9;;;0.6;;
68473;SDS011;55461;52.066;5.194;2022-07-06T08:31:42;2.7;;;0.7;;
68473;SDS011;55461;52.066;5.194;2022-07-06T08:33:29;1.7;;;0.7;;
68473;SDS011;55461;52.066;5.194;2022-07-06T08:37:03;1.4;;;0.5;;
68473;SDS011;55461;52.066;5.194;2022-07-06T08:38:49;1.8;;;0.6;;
68473;SDS011;55461;52.066;5.194;2022-07-06T08:40:36;2.21;;;0.4;;
68473;SDS011;55461;52.066;5.194;2022-07-06T08:42:29;2.21;;;0.4;;
68473;SDS011;55461;52.066;5.194;2022-07-06T08:44:16;1.0;;;0.4;;
68473;SDS011;55461;52.066;5.194;2022-07-06T08:46:06;2.21;;;0.6;;
68473;SDS011;55461;52.066;5.194;2022-07-06T08:47:54;1.0;;;0.5;;
68473;SDS011;55461;52.066;5.194;2022-07-06T08:51:31;2.0;;;0.6;;
68473;SDS011;55461;52.066;5.194;2022-07-06T08:53:17;1.0;;;0.5;;
68473;SDS011;55461;52.066;5.194;2022-07-06T08:55:04;1.7;;;0.6;;
68473;SDS011;55461;52.066;5.194;2022-07-06T08:56:51;0.9;;;0.5;;
68473;SDS011;55461;52.066;5.194;2022-07-06T08:58:42;1.8;;;0.5;;
68473;SDS011;55461;52.066;5.194;2022-07-06T09:00:29;2.1;;;0.6;;
68473;SDS011;55461;52.066;5.194;2022-07-06T09:04:09;3.5;;;0.7;;
68473;SDS011;55461;52.066;5.194;2022-07-06T09:06:01;2.21;;;0.5;;
68473;SDS011;55461;52.066;5.194;2022-07-06T09:07:49;1.9;;;0.6;;
68473;SDS011;55461;52.066;5.194;2022-07-06T09:09:37;3.4;;;0.5;;
68473;SDS011;55461;52.066;5.194;2022-07-06T09:11:26;3.1;;;0.6;;
68473;SDS011;55461;52.066;5.194;2022-07-06T09:13:12;2.21;;;0.4;;
68473;SDS011;55461;52.066;5.194;2022-07-06T09:16:44;1.2;;;0.6;;
68473;SDS011;55461;52.066;5.194;2022-07-06T09:18:37;1.2;;;0.4;;
68473;SDS011;55461;52.066;5.194;2022-07-06T09:20:25;2.31;;;0.6;;
68473;SDS011;55461;52.066;5.194;2022-07-06T09:22:24;1.11;;;0.4;;
68473;SDS011;55461;52.066;5.194;2022-07-06T09:24:11;4.0;;;0.6;;
68473;SDS011;55461;52.066;5.194;2022-07-06T09:26:01;4.8;;;0.7;;
68473;SDS011;55461;52.066;5.194;2022-07-06T09:27:50;1.7;;;0.5;;
68473;SDS011;55461;52.066;5.194;2022-07-06T09:29:43;1.7;;;0.6;;
68473;SDS011;55461;52.066;5.194;2022-07-06T09:33:18;1.5;;;0.5;;
68473;SDS011;55461;52.066;5.194;2022-07-06T09:35:04;1.5;;;0.5;;
68473;SDS011;55461;52.066;5.194;2022-07-06T09:36:51;1.2;;;0.5;;
68473;SDS011;55461;52.066;5.194;2022-07-06T09:38:37;2.4;;;0.5;;
68473;SDS011;55461;52.066;5.194;2022-07-06T09:40:25;2.4;;;0.5;;
68473;SDS011;55461;52.066;5.194;2022-07-06T09:43:57;1.5;;;0.6;;
68473;SDS011;55461;52.066;5.194;2022-07-06T09:45:44;1.3;;;0.5;;
68473;SDS011;55461;52.066;5.194;2022-07-06T09:47:32;1.11;;;0.5;;
68473;SDS011;55461;52.066;5.194;2022-07-06T09:49:19;1.0;;;0.5;;
68473;SDS011;55461;52.066;5.194;2022-07-06T09:51:07;1.5;;;0.4;;
68473;SDS011;55461;52.066;5.194;2022-07-06T09:52:55;3.0;;;0.6;;
68473;SDS011;55461;52.066;5.194;2022-07-06T09:56:35;5.11;;;0.6;;
68473;SDS011;55461;52.066;5.194;2022-07-06T09:58:22;1.9;;;0.5;;
68473;SDS011;55461;52.066;5.194;2022-07-06T10:00:09;1.6;;;0.5;;
68473;SDS011;55461;52.066;5.194;2022-07-06T10:01:58;1.8;;;0.5;;
68473;SDS011;55461;52.066;5.194;2022-07-06T10:03:46;1.3;;;0.5;;
68473;SDS011;55461;52.066;5.194;2022-07-06T10:05:36;2.9;;;0.4;;
68473;SDS011;55461;52.066;5.194;2022-07-06T10:07:23;1.9;;;0.5;;
68473;SDS011;55461;52.066;5.194;2022-07-06T10:11:00;1.11;;;0.4;;
68473;SDS011;55461;52.066;5.194;2022-07-06T10:12:49;2.5;;;0.6;;
68473;SDS011;55461;52.066;5.194;2022-07-06T10:14:36;1.7;;;0.4;;
68473;SDS011;55461;52.066;5.194;2022-07-06T10:16:25;1.3;;;0.6;;
68473;SDS011;55461;52.066;5.194;2022-07-06T10:18:12;1.11;;;0.5;;
68473;SDS011;55461;52.066;5.194;2022-07-06T10:19:59;1.11;;;0.4;;
68473;SDS011;55461;52.066;5.194;2022-07-06T10:23:36;1.0;;;0.4;;
68473;SDS011;55461;52.066;5.194;2022-07-06T10:25:22;0.7;;;0.4;;
68473;SDS011;55461;52.066;5.194;2022-07-06T10:27:10;2.7;;;0.4;;
68473;SDS011;55461;52.066;5.194;2022-07-06T10:28:59;2.6;;;0.5;;
68473;SDS011;55461;52.066;5.194;2022-07-06T10:30:46;3.7;;;0.7;;
68473;SDS011;55461;52.066;5.194;2022-07-06T10:32:36;1.6;;;0.5;;
68473;SDS011;55461;52.066;5.194;2022-07-06T10:36:12;1.2;;;0.5;;
68473;SDS011;55461;52.066;5.194;2022-07-06T10:38:03;1.7;;;0.5;;
68473;SDS011;55461;52.066;5.194;2022-07-06T10:42:57;1.6;;;0.6;;
68473;SDS011;55461;52.066;5.194;2022-07-06T10:44:45;2.5;;;0.7;;
68473;SDS011;55461;52.066;5.194;2022-07-06T10:46:32;1.7;;;0.6;;
68473;SDS011;55461;52.066;5.194;2022-07-06T10:48:22;2.9;;;0.6;;
68473;SDS011;55461;52.066;5.194;2022-07-06T10:50:08;2.9;;;0.6;;
68473;SDS011;55461;52.066;5.194;2022-07-06T10:51:56;2.7;;;0.5;;
68473;SDS011;55461;52.066;5.194;2022-07-06T10:53:44;1.6;;;0.5;;
68473;SDS011;55461;52.066;5.194;2022-07-06T10:55:32;1.9;;;0.5;;
68473;SDS011;55461;52.066;5.194;2022-07-06T10:59:08;1.3;;;0.5;;
68473;SDS011;55461;52.066;5.194;2022-07-06T11:00:56;1.11;;;0.4;;
68473;SDS011;55461;52.066;5.194;2022-07-06T11:02:42;2.0;;;0.6;;
68473;SDS011;55461;52.066;5.194;2022-07-06T11:04:30;2.31;;;0.5;;
68473;SDS011;55461;52.066;5.194;2022-07-06T11:06:18;0.9;;;0.5;;
68473;SDS011;55461;52.066;5.194;2022-07-06T11:08:08;1.4;;;0.5;;
68473;SDS011;55461;52.066;5.194;2022-07-06T11:11:48;2.7;;;0.6;;
68473;SDS011;55461;52.066;5.194;2022-07-06T11:13:41;1.6;;;0.5;;
68473;SDS011;55461;52.066;5.194;2022-07-06T11:16:01;0.4;;;0.4;;
68473;SDS011;55461;52.066;5.194;2022-07-06T11:18:18;0.9;;;0.5;;
68473;SDS011;55461;52.066;5.194;2022-07-06T11:20:08;2.6;;;0.6;;
68473;SDS011;55461;52.066;5.194;2022-07-06T11:21:58;1.8;;;0.6;;
68473;SDS011;55461;52.066;5.194;2022-07-06T11:23:52;1.9;;;0.6;;
68473;SDS011;55461;52.066;5.194;2022-07-06T11:25:40;1.5;;;0.6;;
68473;SDS011;55461;52.066;5.194;2022-07-06T11:27:27;3.3;;;0.6;;
68473;SDS011;55461;52.066;5.194;2022-07-06T11:29:13;1.6;;;0.5;;
68473;SDS011;55461;52.066;5.194;2022-07-06T11:32:47;2.0;;;0.8;;
68473;SDS011;55461;52.066;5.194;2022-07-06T11:36:23;2.21;;;0.6;;
68473;SDS011;55461;52.066;5.194;2022-07-06T11:38:25;1.8;;;0.6;;
68473;SDS011;55461;52.066;5.194;2022-07-06T11:42:00;1.8;;;0.7;;
68473;SDS011;55461;52.066;5.194;2022-07-06T11:43:51;2.6;;;0.6;;
68473;SDS011;55461;52.066;5.194;2022-07-06T11:47:30;2.0;;;0.5;;
68473;SDS011;55461;52.066;5.194;2022-07-06T11:49:17;1.6;;;0.6;;
68473;SDS011;55461;52.066;5.194;2022-07-06T11:51:05;2.31;;;0.6;;
68473;SDS011;55461;52.066;5.194;2022-07-06T11:52:51;2.5;;;0.6;;
68473;SDS011;55461;52.066;5.194;2022-07-06T11:54:38;2.8;;;0.7;;
68473;SDS011;55461;52.066;5.194;2022-07-06T11:56:26;2.9;;;0.8;;
68473;SDS011;55461;52.066;5.194;2022-07-06T11:58:15;2.1;;;0.7;;
68473;SDS011;55461;52.066;5.194;2022-07-06T12:01:58;4.2;;;0.8;;
68473;SDS011;55461;52.066;5.194;2022-07-06T12:03:45;2.4;;;0.7;;
68473;SDS011;55461;52.066;5.194;2022-07-06T12:05:32;2.1;;;0.5;;
68473;SDS011;55461;52.066;5.194;2022-07-06T12:07:19;1.9;;;0.7;;
68473;SDS011;55461;52.066;5.194;2022-07-06T12:09:06;2.0;;;0.5;;
68473;SDS011;55461;52.066;5.194;2022-07-06T12:10:52;3.5;;;0.6;;
68473;SDS011;55461;52.066;5.194;2022-07-06T12:14:25;2.31;;;0.6;;
68473;SDS011;55461;52.066;5.194;2022-07-06T12:16:13;1.9;;;0.6;;
68473;SDS011;55461;52.066;5.194;2022-07-06T12:18:01;2.5;;;0.5;;
68473;SDS011;55461;52.066;5.194;2022-07-06T12:19:52;3.8;;;0.9;;
68473;SDS011;55461;52.066;5.194;2022-07-06T12:21:43;2.31;;;0.8;;
68473;SDS011;55461;52.066;5.194;2022-07-06T12:23:38;2.5;;;0.6;;
68473;SDS011;55461;52.066;5.194;2022-07-06T12:25:30;2.5;;;0.6;;
68473;SDS011;55461;52.066;5.194;2022-07-06T12:29:09;2.9;;;0.7;;
68473;SDS011;55461;52.066;5.194;2022-07-06T12:30:58;3.2;;;0.8;;
68473;SDS011;55461;52.066;5.194;2022-07-06T12:32:44;4.41;;;0.8;;
68473;SDS011;55461;52.066;5.194;2022-07-06T12:34:32;2.1;;;0.9;;
68473;SDS011;55461;52.066;5.194;2022-07-06T12:36:18;1.5;;;0.7;;
68473;SDS011;55461;52.066;5.194;2022-07-06T12:38:05;4.0;;;0.8;;
68473;SDS011;55461;52.066;5.194;2022-07-06T12:41:43;1.2;;;0.6;;
68473;SDS011;55461;52.066;5.194;2022-07-06T12:43:37;1.9;;;0.6;;
68473;SDS011;55461;52.066;5.194;2022-07-06T12:45:26;2.5;;;0.6;;
68473;SDS011;55461;52.066;5.194;2022-07-06T12:47:16;2.31;;;0.7;;
68473;SDS011;55461;52.066;5.194;2022-07-06T12:49:10;2.1;;;0.6;;
68473;SDS011;55461;52.066;5.194;2022-07-06T12:51:01;3.4;;;0.9;;
68473;SDS011;55461;52.066;5.194;2022-07-06T12:52:47;3.2;;;1.0;;
68473;SDS011;55461;52.066;5.194;2022-07-06T12:56:26;3.1;;;0.7;;
68473;SDS011;55461;52.066;5.194;2022-07-06T12:58:17;1.9;;;0.7;;
68473;SDS011;55461;52.066;5.194;2022-07-06T13:00:06;1.2;;;0.6;;
68473;SDS011;55461;52.066;5.194;2022-07-06T13:01:56;2.9;;;0.8;;
68473;SDS011;55461;52.066;5.194;2022-07-06T13:03:42;4.7;;;0.7;;
68473;SDS011;55461;52.066;5.194;2022-07-06T13:05:30;2.0;;;0.8;;
68473;SDS011;55461;52.066;5.194;2022-07-06T13:09:04;1.9;;;0.7;;